Time;durP1;ratioP1;P1;durP2;ratioP2;P2;SDS_P1;SDS_P2;PMS_P1;PMS_P2;Temp;Humidity;BMP_temperature;BMP_pressure;BME280_temperature;BME280_humidity;BME280_pressure;Samples;Min_cycle;Max_cycle;Signal;HPM_P1;HPM_P2
2023/01/25 00:02:05;;;;;;;15.80;10.65;;;;;;;1.41;84.32;103358.84;5067369;28;20279;-83
2023/01/25 00:04:35;;;;;;;19.45;11.07;;;;;;;1.46;84.67;103346.97;5059151;28;20216;-83
2023/01/25 00:07:05;;;;;;;21.25;12.52;;;;;;;1.46;84.87;103341.66;5069045;28;20202;-82
2023/01/25 00:09:34;;;;;;;17.05;11.63;;;;;;;1.47;84.55;103331.84;5083048;28;20247;-82
2023/01/25 00:12:04;;;;;;;21.15;12.07;;;;;;;1.45;84.44;103331.06;5081149;28;20199;-83
2023/01/25 00:14:37;;;;;;;20.60;11.90;;;;;;;1.49;84.25;103324.63;5085847;28;20219;-82
2023/01/25 00:17:09;;;;;;;16.05;10.75;;;;;;;1.51;84.60;103323.56;5079940;28;20192;-81
2023/01/25 00:19:40;;;;;;;16.00;11.45;;;;;;;1.51;84.42;103317.38;5079823;28;20176;-83
2023/01/25 00:22:09;;;;;;;17.75;12.23;;;;;;;1.44;85.36;103310.66;5078384;28;20222;-83
2023/01/25 00:24:40;;;;;;;25.15;11.00;;;;;;;1.73;85.02;103312.56;5100912;28;20231;-82
2023/01/25 00:27:14;;;;;;;18.33;12.82;;;;;;;1.74;84.32;103306.28;5102842;28;20526;-82
2023/01/25 00:29:44;;;;;;;20.55;13.27;;;;;;;1.61;84.24;103297.22;5099882;28;20234;-82
2023/01/25 00:32:53;;;;;;;18.25;11.45;;;;;;;1.62;84.57;103278.47;5085182;28;20180;-84
2023/01/25 00:35:24;;;;;;;18.80;12.75;;;;;;;1.92;83.34;103272.34;5100889;28;20242;-82
2023/01/25 00:37:55;;;;;;;15.88;10.20;;;;;;;1.84;82.89;103272.75;5087003;28;20178;-83
2023/01/25 00:40:27;;;;;;;18.65;11.82;;;;;;;1.63;83.67;103261.53;5114714;28;20174;-81
2023/01/25 00:43:00;;;;;;;16.70;12.52;;;;;;;1.66;84.12;103250.66;5097950;28;20192;-82
2023/01/25 00:45:35;;;;;;;17.20;11.98;;;;;;;1.81;83.58;103248.91;5104900;28;20194;-81
2023/01/25 00:48:07;;;;;;;21.15;11.98;;;;;;;1.75;82.91;103244.78;5104001;28;20199;-81
2023/01/25 00:50:49;;;;;;;13.00;11.27;;;;;;;1.66;83.72;103241.78;5099254;28;20198;-82
2023/01/25 00:53:24;;;;;;;20.35;12.48;;;;;;;1.74;83.78;103239.56;5090711;28;20285;-81
2023/01/25 00:56:11;;;;;;;19.98;12.57;;;;;;;1.70;83.57;103235.31;5098602;28;20195;-81
2023/01/25 00:58:48;;;;;;;19.73;10.30;;;;;;;1.72;82.82;103236.97;5084973;28;20190;-83
2023/01/25 01:01:28;;;;;;;15.32;11.95;;;;;;;1.67;83.91;103244.38;5104173;28;20183;-83
2023/01/25 01:04:13;;;;;;;18.20;11.27;;;;;;;1.72;83.63;103249.44;5083088;28;20219;-82
2023/01/25 01:06:48;;;;;;;17.08;11.25;;;;;;;1.69;83.61;103262.97;5093176;28;20695;-82
2023/01/25 01:09:19;;;;;;;16.98;11.48;;;;;;;1.61;84.56;103270.53;5102467;28;20229;-82
2023/01/25 01:11:50;;;;;;;22.15;11.80;;;;;;;1.65;85.23;103272.09;5102953;28;20198;-84
2023/01/25 01:14:23;;;;;;;18.45;11.13;;;;;;;1.58;84.53;103260.06;5104639;28;20276;-83
2023/01/25 01:16:53;;;;;;;19.73;11.90;;;;;;;1.57;84.76;103272.53;5107618;28;20211;-83
2023/01/25 01:19:26;;;;;;;19.83;12.27;;;;;;;1.65;84.73;103256.06;5112227;28;20171;-81
2023/01/25 01:21:57;;;;;;;14.35;10.98;;;;;;;1.67;84.62;103249.72;5120457;28;20240;-81
2023/01/25 01:24:30;;;;;;;15.13;10.95;;;;;;;1.62;84.67;103250.91;5119519;28;20263;-80
2023/01/25 01:27:00;;;;;;;20.77;12.13;;;;;;;1.51;85.60;103253.31;5114005;28;20196;-80
2023/01/25 01:29:30;;;;;;;17.15;11.60;;;;;;;1.49;86.02;103255.22;5099060;28;20180;-81
2023/01/25 01:32:01;;;;;;;17.75;11.82;;;;;;;1.52;86.23;103245.25;5104451;28;20190;-81
2023/01/25 01:34:31;;;;;;;23.05;13.55;;;;;;;1.47;86.29;103252.63;5118391;28;20225;-81
2023/01/25 01:37:02;;;;;;;18.90;11.68;;;;;;;1.53;86.17;103241.63;5118535;28;20176;-81
2023/01/25 01:39:31;;;;;;;18.73;12.43;;;;;;;1.46;86.69;103245.56;5102901;28;20208;-84
2023/01/25 01:42:01;;;;;;;18.52;12.98;;;;;;;1.62;86.20;103245.56;5082699;28;20282;-83
2023/01/25 01:44:47;;;;;;;21.50;14.00;;;;;;;1.60;86.16;103243.00;5080356;28;20238;-82
2023/01/25 01:47:22;;;;;;;20.23;12.20;;;;;;;1.60;85.59;103244.78;5079942;28;20235;-82
2023/01/25 01:49:59;;;;;;;19.67;11.60;;;;;;;1.65;85.46;103240.06;5078965;28;20184;-82
2023/01/25 01:52:36;;;;;;;20.02;13.25;;;;;;;1.83;85.34;103233.69;5085010;28;20195;-82
2023/01/25 01:55:13;;;;;;;18.13;11.70;;;;;;;1.72;85.17;103234.28;5090759;28;20222;-82
2023/01/25 01:57:48;;;;;;;18.25;12.63;;;;;;;1.64;85.13;103227.69;5086576;28;20199;-82
2023/01/25 02:00:23;;;;;;;21.45;14.30;;;;;;;1.68;85.84;103235.44;5084668;28;20234;-83
2023/01/25 02:02:52;;;;;;;24.83;12.90;;;;;;;1.71;85.96;103229.91;5091657;28;20184;-82
2023/01/25 02:05:28;;;;;;;21.80;13.10;;;;;;;1.79;85.60;103226.81;5090262;28;20262;-80
2023/01/25 02:07:59;;;;;;;20.20;11.80;;;;;;;1.62;86.35;103226.91;5092159;28;20187;-83
2023/01/25 02:10:31;;;;;;;22.92;13.60;;;;;;;1.70;86.12;103232.63;5092171;28;20180;-83
2023/01/25 02:13:04;;;;;;;19.80;12.73;;;;;;;1.56;86.69;103224.56;5090932;28;20223;-81
2023/01/25 02:15:42;;;;;;;25.63;12.88;;;;;;;1.58;86.64;103228.03;5109714;28;20597;-82
2023/01/25 02:18:17;;;;;;;21.70;14.52;;;;;;;1.51;87.06;103229.31;5092057;28;20192;-82
2023/01/25 02:20:49;;;;;;;21.20;14.20;;;;;;;1.42;87.67;103220.00;5074586;28;20171;-83
2023/01/25 02:23:28;;;;;;;19.60;12.55;;;;;;;1.67;87.17;103216.81;5087920;28;20187;-81
2023/01/25 02:26:01;;;;;;;19.77;12.73;;;;;;;1.58;87.08;103217.34;5107869;28;20206;-85
2023/01/25 02:28:36;;;;;;;20.77;13.50;;;;;;;1.53;87.48;103214.06;5103984;28;20207;-83
2023/01/25 02:31:15;;;;;;;20.38;12.85;;;;;;;1.59;87.62;103213.72;5108539;28;20171;-80
2023/01/25 02:33:52;;;;;;;17.67;13.05;;;;;;;1.74;87.19;103212.84;5114575;28;20237;-82
2023/01/25 02:36:28;;;;;;;24.98;13.95;;;;;;;1.63;86.93;103209.94;5095826;28;20176;-82
2023/01/25 02:39:02;;;;;;;22.45;15.23;;;;;;;1.44;87.74;103209.28;5091542;28;20218;-80
2023/01/25 02:41:38;;;;;;;20.98;11.80;;;;;;;1.47;88.11;103214.41;5096908;28;20180;-83
2023/01/25 02:44:18;;;;;;;23.08;15.30;;;;;;;1.50;88.08;103215.09;5093866;28;20200;-82
2023/01/25 02:46:50;;;;;;;27.27;16.20;;;;;;;1.53;87.84;103206.06;5085944;28;20212;-84
2023/01/25 02:49:29;;;;;;;23.92;14.90;;;;;;;1.43;87.67;103196.88;5082092;28;20207;-82
2023/01/25 02:52:01;;;;;;;25.48;12.55;;;;;;;1.40;88.78;103202.38;5083651;28;20758;-83
2023/01/25 02:54:33;;;;;;;23.45;13.82;;;;;;;1.50;87.97;103201.75;5081373;28;20216;-83
2023/01/25 03:01:23;;;;;;;20.65;12.45;;;;;;;1.51;88.04;103189.28;5101008;28;20187;-81
2023/01/25 03:03:56;;;;;;;22.05;14.73;;;;;;;1.53;88.75;103203.41;5116796;28;20219;-81
2023/01/25 03:06:26;;;;;;;24.05;13.40;;;;;;;1.62;88.69;103190.38;5099278;28;20208;-82
2023/01/25 03:09:06;;;;;;;19.83;14.02;;;;;;;1.63;87.75;103193.91;5096583;28;20186;-82
2023/01/25 03:11:37;;;;;;;28.15;14.23;;;;;;;1.74;87.40;103196.84;5096204;28;20208;-82
2023/01/25 03:14:06;;;;;;;18.25;12.77;;;;;;;1.72;87.11;103196.06;5096031;28;20210;-83
2023/01/25 03:16:37;;;;;;;21.30;13.40;;;;;;;1.61;87.19;103193.13;5095885;28;20248;-81
2023/01/25 03:19:07;;;;;;;29.48;16.48;;;;;;;1.60;87.91;103191.41;5096032;28;20191;-84
2023/01/25 03:21:37;;;;;;;26.05;14.20;;;;;;;1.61;88.48;103185.13;5095966;28;20176;-82
2023/01/25 03:24:09;;;;;;;26.48;17.52;;;;;;;1.60;88.93;103181.59;5091632;28;20212;-83
2023/01/25 03:29:50;;;;;;;23.63;11.63;;;;;;;1.59;87.63;103171.91;5085637;28;20183;-82
2023/01/25 03:32:27;;;;;;;19.48;14.23;;;;;;;1.91;87.24;103167.31;5083184;28;20188;-83
2023/01/25 03:35:02;;;;;;;22.77;15.68;;;;;;;1.84;87.02;103168.63;5082534;28;20218;-83
2023/01/25 03:37:33;;;;;;;21.45;14.35;;;;;;;1.74;87.65;103170.97;5082844;28;20226;-81
2023/01/25 03:40:02;;;;;;;22.25;13.55;;;;;;;1.78;87.36;103163.66;5092865;28;20424;-81
2023/01/25 03:42:32;;;;;;;26.30;14.77;;;;;;;1.74;87.36;103164.81;5123720;28;20199;-83
2023/01/25 03:45:07;;;;;;;20.67;13.88;;;;;;;1.69;87.71;103169.56;5103267;28;20233;-84
2023/01/25 03:47:42;;;;;;;23.38;14.27;;;;;;;1.80;87.51;103166.22;5079543;28;20617;-83
2023/01/25 03:50:12;;;;;;;28.88;17.17;;;;;;;1.82;87.70;103162.53;5062340;28;20177;-83
2023/01/25 03:52:46;;;;;;;27.90;17.05;;;;;;;1.77;87.78;103156.59;5062048;28;20196;-83
2023/01/25 03:55:17;;;;;;;27.73;14.55;;;;;;;1.74;87.82;103151.47;5045339;28;20208;-83
2023/01/25 03:57:48;;;;;;;25.35;15.02;;;;;;;1.84;87.84;103144.59;5061865;28;20177;-82
2023/01/25 04:00:24;;;;;;;19.90;13.55;;;;;;;1.78;87.79;103139.63;5076621;28;20200;-82
2023/01/25 04:03:05;;;;;;;23.45;15.80;;;;;;;1.95;86.64;103136.81;5087783;28;20207;-83
2023/01/25 04:05:41;;;;;;;27.05;16.92;;;;;;;1.93;87.06;103133.38;5102371;28;20521;-82
2023/01/25 04:08:12;;;;;;;29.80;16.60;;;;;;;1.97;86.54;103134.91;5100205;28;20218;-83
2023/01/25 04:10:42;;;;;;;27.08;15.75;;;;;;;1.96;87.18;103124.31;5092829;28;20203;-81
2023/01/25 04:13:12;;;;;;;26.25;17.38;;;;;;;1.97;86.90;103118.91;5082873;28;20184;-81
2023/01/25 04:15:41;;;;;;;28.30;18.50;;;;;;;1.93;86.80;103114.69;5082460;28;20212;-80
2023/01/25 04:18:21;;;;;;;33.75;17.73;;;;;;;2.06;86.29;103110.31;5080236;28;20204;-80
2023/01/25 04:20:55;;;;;;;29.20;17.33;;;;;;;2.03;86.31;103110.50;5080808;28;20195;-80
2023/01/25 04:23:26;;;;;;;28.20;14.90;;;;;;;1.88;86.98;103106.09;5083863;28;20715;-82
2023/01/25 04:25:56;;;;;;;27.20;15.40;;;;;;;2.00;87.00;103104.47;5083056;28;20215;-81
2023/01/25 04:28:27;;;;;;;26.75;16.13;;;;;;;2.12;86.58;103101.09;5081884;28;20204;-81
2023/01/25 04:30:57;;;;;;;25.60;15.85;;;;;;;2.06;86.60;103096.09;5084820;28;20196;-83
2023/01/25 04:33:34;;;;;;;22.88;15.35;;;;;;;2.03;86.03;103101.66;5098416;28;20309;-81
2023/01/25 04:36:05;;;;;;;31.73;17.83;;;;;;;1.92;86.55;103098.75;5100480;28;20191;-80
2023/01/25 04:38:35;;;;;;;29.40;16.60;;;;;;;2.06;87.61;103091.63;5082613;28;20662;-80
2023/01/25 04:41:06;;;;;;;23.77;14.77;;;;;;;2.13;86.54;103087.59;5083898;28;20260;-81
2023/01/25 04:43:35;;;;;;;29.23;17.20;;;;;;;2.38;88.10;103080.75;5079427;28;20212;-81
2023/01/25 04:46:12;;;;;;;25.42;16.48;;;;;;;2.36;88.01;103082.66;5078707;28;20196;-82
2023/01/25 04:48:43;;;;;;;27.52;17.58;;;;;;;2.42;85.07;103093.00;5097063;28;20207;-81
2023/01/25 04:51:13;;;;;;;27.42;17.10;;;;;;;2.27;85.09;103072.56;5101126;28;20268;-81
2023/01/25 04:53:42;;;;;;;24.02;15.70;;;;;;;2.09;85.99;103070.06;5088663;28;20269;-82
2023/01/25 04:56:12;;;;;;;32.20;17.65;;;;;;;2.16;87.58;103063.41;5085663;28;20184;-82
2023/01/25 04:58:48;;;;;;;39.35;17.85;;;;;;;2.20;87.63;103066.72;5088926;28;20203;-81
2023/01/25 05:01:19;;;;;;;30.67;16.77;;;;;;;2.23;85.75;103068.38;5089648;28;20200;-82
2023/01/25 05:03:53;;;;;;;27.98;17.42;;;;;;;2.22;85.78;103070.19;5088916;28;20220;-80
2023/01/25 05:06:36;;;;;;;29.63;16.60;;;;;;;2.42;85.40;103064.41;5090346;28;20188;-80
2023/01/25 05:09:07;;;;;;;28.15;16.80;;;;;;;2.40;86.58;103057.47;5088137;28;20292;-80
2023/01/25 05:11:37;;;;;;;26.88;17.48;;;;;;;2.41;85.33;103060.06;5095674;28;20194;-81
2023/01/25 05:14:35;;;;;;;25.50;15.50;;;;;;;2.55;85.61;103056.50;5102626;28;20245;-81
2023/01/25 05:17:10;;;;;;;25.65;16.73;;;;;;;2.66;85.99;103054.00;5107021;28;20413;-79
2023/01/25 05:19:48;;;;;;;27.90;16.20;;;;;;;2.65;83.58;103048.75;5118898;28;20187;-79
2023/01/25 05:22:23;;;;;;;28.45;16.90;;;;;;;2.63;85.17;103046.16;5099591;28;20199;-81
2023/01/25 05:24:55;;;;;;;30.30;18.88;;;;;;;2.66;85.59;103047.81;5099757;28;20202;-80
2023/01/25 05:27:25;;;;;;;23.40;15.35;;;;;;;2.68;85.30;103048.53;5098713;28;20194;-81
2023/01/25 05:29:55;;;;;;;23.15;14.43;;;;;;;2.76;85.55;103046.25;5096272;28;20183;-83
2023/01/25 05:32:34;;;;;;;26.83;14.88;;;;;;;2.72;85.08;103037.56;5075816;28;20196;-82
2023/01/25 05:35:05;;;;;;;28.25;15.35;;;;;;;2.73;85.22;103043.75;5073172;28;20208;-82
2023/01/25 05:37:39;;;;;;;27.95;15.45;;;;;;;2.74;84.79;103043.66;5065611;28;20180;-82
2023/01/25 05:40:19;;;;;;;25.48;16.60;;;;;;;2.77;84.07;103051.47;5066290;28;20180;-81
2023/01/25 05:42:56;;;;;;;23.55;16.58;;;;;;;2.61;84.51;103053.44;5085973;28;20187;-81
2023/01/25 05:45:30;;;;;;;25.63;15.93;;;;;;;2.65;85.90;103057.63;5070461;28;20212;-81
2023/01/25 05:48:15;;;;;;;26.85;15.63;;;;;;;2.66;85.71;103058.50;5070693;28;20200;-82
2023/01/25 05:50:49;;;;;;;24.30;15.52;;;;;;;2.59;84.45;103058.00;5091259;28;20182;-81
2023/01/25 05:53:26;;;;;;;23.38;15.45;;;;;;;2.70;84.10;103052.84;5098651;28;20216;-80
2023/01/25 05:55:57;;;;;;;22.80;13.88;;;;;;;2.61;84.47;103051.59;5096380;28;20280;-85
2023/01/25 05:58:27;;;;;;;22.65;13.23;;;;;;;2.55;85.77;103041.31;5084340;28;20199;-83
2023/01/25 06:00:59;;;;;;;23.52;14.00;;;;;;;2.65;86.46;103036.25;5091447;28;20188;-83
2023/01/25 06:03:47;;;;;;;29.30;14.75;;;;;;;2.79;84.79;103038.88;5094504;28;20246;-81
2023/01/25 06:06:25;;;;;;;24.75;13.90;;;;;;;2.67;84.88;103034.31;5091812;28;20207;-83
2023/01/25 06:09:03;;;;;;;19.92;13.15;;;;;;;2.77;86.25;103024.75;5106260;28;20196;-81
2023/01/25 06:11:48;;;;;;;26.48;15.82;;;;;;;2.81;84.64;103030.78;5096448;28;20196;-80
2023/01/25 06:14:22;;;;;;;15.07;13.05;;;;;;;2.72;84.51;103020.66;5097735;28;20211;-80
2023/01/25 06:16:55;;;;;;;22.95;15.70;;;;;;;2.77;84.30;103019.41;5097621;28;20165;-81
2023/01/25 06:19:48;;;;;;;19.25;13.25;;;;;;;2.69;84.55;103016.38;5099864;28;20196;-80
2023/01/25 06:22:39;;;;;;;22.75;13.50;;;;;;;2.60;85.72;103016.97;5089176;28;20265;-81
2023/01/25 06:25:10;;;;;;;26.58;15.35;;;;;;;2.68;86.58;103021.81;5093031;28;20215;-81
2023/01/25 06:27:44;;;;;;;23.40;15.70;;;;;;;2.82;86.08;103017.28;5086049;28;20267;-82
2023/01/25 06:30:18;;;;;;;24.15;14.18;;;;;;;2.93;86.54;103028.13;5104302;28;20203;-82
2023/01/25 06:32:51;;;;;;;21.83;14.10;;;;;;;2.78;85.41;103021.13;5103090;28;20186;-82
2023/01/25 06:35:23;;;;;;;17.40;12.55;;;;;;;2.86;85.26;103018.78;5107133;28;20219;-82
2023/01/25 06:37:59;;;;;;;18.83;12.50;;;;;;;2.90;86.08;103025.69;5114726;28;20199;-83
2023/01/25 06:40:30;;;;;;;23.92;14.85;;;;;;;2.78;86.50;103021.13;5101025;28;20260;-81
2023/01/25 06:43:07;;;;;;;19.27;13.65;;;;;;;2.96;86.16;103019.91;5096422;28;21053;-80
2023/01/25 06:45:37;;;;;;;17.55;11.20;;;;;;;2.97;85.79;103015.41;5088716;28;20183;-82
2023/01/25 06:48:06;;;;;;;20.38;11.57;;;;;;;2.91;84.95;103016.66;5085432;28;20220;-81
2023/01/25 06:50:36;;;;;;;18.05;11.68;;;;;;;2.89;85.51;103007.03;5096428;28;20248;-81
2023/01/25 06:53:07;;;;;;;20.30;11.77;;;;;;;2.85;85.18;103009.06;5089902;28;20192;-80
2023/01/25 06:55:36;;;;;;;19.13;13.70;;;;;;;2.88;86.08;102998.16;5090561;28;20579;-77
2023/01/25 06:58:06;;;;;;;15.68;11.63;;;;;;;2.69;85.03;102996.78;5090414;28;20164;-76
2023/01/25 07:00:36;;;;;;;14.27;11.45;;;;;;;2.66;85.49;102988.97;5097657;28;20202;-78
2023/01/25 07:03:06;;;;;;;15.35;9.25;;;;;;;2.55;86.02;102987.88;5111696;28;20730;-79
2023/01/25 07:05:35;;;;;;;27.23;10.95;;;;;;;2.44;86.52;102997.53;5102833;28;20279;-79
2023/01/25 07:08:06;;;;;;;14.85;11.20;;;;;;;2.43;86.33;102990.44;5090499;28;20214;-79
2023/01/25 07:10:36;;;;;;;19.92;10.35;;;;;;;2.46;86.43;102977.78;5092540;28;20192;-76
2023/01/25 07:13:05;;;;;;;19.10;10.40;;;;;;;2.59;86.85;102989.38;5111131;28;20214;-79
2023/01/25 07:15:35;;;;;;;15.02;10.88;;;;;;;2.45;86.81;102983.22;5105548;28;20211;-79
2023/01/25 07:18:05;;;;;;;20.70;12.27;;;;;;;2.33;86.97;102986.66;5092740;28;20222;-78
2023/01/25 07:20:44;;;;;;;26.52;12.63;;;;;;;2.55;86.84;102976.31;5103954;28;20197;-76
2023/01/25 07:23:21;;;;;;;17.70;10.80;;;;;;;2.49;86.76;102977.56;5097735;28;20164;-76
2023/01/25 07:25:51;;;;;;;22.17;12.02;;;;;;;2.31;87.43;102975.22;5093231;28;20168;-78
2023/01/25 07:28:21;;;;;;;16.92;11.63;;;;;;;2.45;87.99;102976.06;5090619;28;20192;-79
2023/01/25 07:30:51;;;;;;;26.55;13.65;;;;;;;2.44;87.12;102968.13;5087882;28;20203;-77
2023/01/25 07:33:21;;;;;;;23.30;12.57;;;;;;;2.44;87.45;102958.28;5087947;28;20201;-77
2023/01/25 07:35:50;;;;;;;24.38;12.57;;;;;;;2.48;87.72;102962.47;5081915;28;20257;-77
2023/01/25 07:38:21;;;;;;;20.80;14.20;;;;;;;2.49;87.51;102955.31;5100680;28;20251;-79
2023/01/25 07:40:53;;;;;;;21.30;12.32;;;;;;;2.51;88.14;102964.97;5091698;28;20200;-76
2023/01/25 07:43:22;;;;;;;24.85;14.07;;;;;;;2.46;87.71;102963.56;5095632;28;20230;-77
2023/01/25 07:45:53;;;;;;;24.95;17.50;;;;;;;2.74;87.31;102960.78;5093051;28;20188;-78
2023/01/25 07:48:24;;;;;;;20.00;12.77;;;;;;;2.45;87.52;102953.81;5093753;28;20266;-78
2023/01/25 07:51:10;;;;;;;24.05;15.20;;;;;;;2.59;88.02;102957.28;5094473;28;20185;-77
2023/01/25 07:53:42;;;;;;;25.95;16.73;;;;;;;2.63;86.76;102956.13;5094109;28;20212;-77
2023/01/25 07:56:13;;;;;;;21.30;13.50;;;;;;;2.55;86.95;102952.25;5091181;28;20184;-75
2023/01/25 07:58:43;;;;;;;23.10;12.95;;;;;;;2.49;87.40;102944.63;5102154;28;20214;-80
2023/01/25 08:01:16;;;;;;;21.45;15.00;;;;;;;2.47;87.28;102943.88;5106290;28;20160;-82
2023/01/25 08:03:51;;;;;;;21.83;13.50;;;;;;;2.45;87.37;102943.13;5093482;28;20231;-81
2023/01/25 08:06:29;;;;;;;19.55;13.38;;;;;;;2.35;88.20;102942.84;5093653;28;20236;-81
2023/01/25 08:09:05;;;;;;;22.05;13.63;;;;;;;2.45;88.04;102941.31;5092672;28;20215;-80
2023/01/25 08:11:43;;;;;;;22.13;14.63;;;;;;;2.66;87.25;102933.72;5079654;28;20191;-82
2023/01/25 08:20:30;;;;;;;21.98;14.10;;;;;;;2.62;86.81;102918.78;5081788;28;20188;-81
2023/01/25 08:23:00;;;;;;;19.35;13.13;;;;;;;2.58;86.88;102927.97;5090539;28;20197;-82
2023/01/25 08:25:32;;;;;;;17.90;11.27;;;;;;;2.52;87.80;102921.22;5076725;28;20269;-80
2023/01/25 08:28:06;;;;;;;20.90;14.20;;;;;;;2.48;88.57;102921.53;5079121;28;20241;-81
2023/01/25 08:30:37;;;;;;;18.50;11.90;;;;;;;2.36;89.25;102922.34;5077766;28;20245;-79
2023/01/25 08:33:20;;;;;;;22.77;13.52;;;;;;;2.32;89.33;102926.19;5079630;28;20193;-80
2023/01/25 08:36:02;;;;;;;22.38;14.57;;;;;;;2.28;89.58;102919.28;5080000;28;20706;-81
2023/01/25 08:38:49;;;;;;;22.13;15.00;;;;;;;2.30;90.27;102923.59;5083332;28;20323;-82
2023/01/25 08:41:57;;;;;;;24.33;13.60;;;;;;;2.30;90.63;102925.41;5088880;28;20190;-81
2023/01/25 08:44:37;;;;;;;28.13;15.85;;;;;;;2.24;91.16;102923.13;5092840;28;20297;-81
2023/01/25 08:47:19;;;;;;;25.00;15.98;;;;;;;2.56;90.39;102916.56;5100091;28;20196;-81
2023/01/25 08:50:02;;;;;;;40.05;22.05;;;;;;;2.60;89.72;102910.03;5094371;28;20204;-81
2023/01/25 08:53:28;;;;;;;25.88;14.68;;;;;;;2.63;89.96;102912.50;5082414;28;20196;-80
2023/01/25 08:56:44;;;;;;;21.00;13.15;;;;;;;2.37;90.39;102913.38;5088397;28;20207;-82
2023/01/25 09:31:28;;;;;;;27.73;16.35;;;;;;;2.17;92.67;102901.31;5099615;28;20227;-83
2023/01/25 09:45:33;;;;;;;26.25;13.27;;;;;;;2.37;91.96;102895.50;5057214;28;20201;-82
2023/01/25 09:48:50;;;;;;;22.30;13.13;;;;;;;2.33;91.80;102893.13;5099235;28;20176;-82
2023/01/25 09:52:43;;;;;;;23.42;13.23;;;;;;;2.29;92.89;102891.63;5099405;28;20203;-82
2023/01/25 10:02:50;;;;;;;24.42;15.35;;;;;;;2.11;92.63;102883.00;5097022;28;20199;-83
2023/01/25 10:31:04;;;;;;;27.10;16.42;;;;;;;2.25;93.82;102839.34;5087914;28;20209;-77
2023/01/25 10:34:49;;;;;;;24.88;15.32;;;;;;;2.39;92.22;102833.94;5082829;28;20234;-78
2023/01/25 10:41:41;;;;;;;24.80;14.55;;;;;;;2.31;92.56;102829.13;5077567;28;20202;-78
2023/01/25 10:44:33;;;;;;;26.58;16.20;;;;;;;2.02;94.21;102823.03;5079459;28;20211;-77
2023/01/25 10:47:29;;;;;;;29.63;16.25;;;;;;;2.29;93.45;102828.34;5089615;28;20194;-77
2023/01/25 10:49:59;;;;;;;30.73;18.20;;;;;;;2.28;93.33;102823.97;5086241;28;20682;-77
2023/01/25 10:52:30;;;;;;;25.35;15.40;;;;;;;2.19;93.88;102813.91;5081339;28;20211;-77
2023/01/25 10:55:14;;;;;;;23.13;15.05;;;;;;;2.15;93.01;102810.56;5084561;28;20248;-79
2023/01/25 10:57:48;;;;;;;26.52;14.02;;;;;;;2.09;93.28;102804.78;5091862;28;20199;-78
2023/01/25 11:00:26;;;;;;;25.15;14.85;;;;;;;2.17;93.19;102805.16;5089515;28;20433;-79
2023/01/25 11:03:00;;;;;;;21.92;12.85;;;;;;;1.90;93.18;102802.44;5079914;28;20184;-78
2023/01/25 11:05:33;;;;;;;26.75;14.05;;;;;;;1.90;93.95;102797.13;5082406;28;20216;-78
2023/01/25 11:08:23;;;;;;;24.50;13.30;;;;;;;1.93;93.94;102786.25;5087776;28;20196;-79
2023/01/25 11:10:53;;;;;;;27.15;16.27;;;;;;;1.82;94.40;102783.41;5074077;28;20223;-78
2023/01/25 11:13:25;;;;;;;27.95;15.27;;;;;;;1.86;94.33;102784.91;5082022;28;20617;-78
2023/01/25 11:16:25;;;;;;;28.60;17.92;;;;;;;1.92;95.07;102776.53;5082910;28;20192;-78
2023/01/25 11:19:00;;;;;;;49.03;20.10;;;;;;;2.07;94.56;102775.50;5089724;28;20210;-80
2023/01/25 11:21:33;;;;;;;29.58;17.05;;;;;;;2.30;93.14;102768.63;5091801;28;20258;-81
2023/01/25 11:24:17;;;;;;;29.58;18.83;;;;;;;2.22;93.06;102757.63;5116798;28;20278;-80
2023/01/25 11:26:47;;;;;;;27.42;16.90;;;;;;;2.18;93.28;102754.25;5098438;28;20218;-80
2023/01/25 11:29:18;;;;;;;32.45;18.90;;;;;;;2.14;93.41;102755.44;5089290;28;20192;-78
2023/01/25 11:31:52;;;;;;;33.78;20.27;;;;;;;2.35;92.90;102752.28;5090504;28;20212;-79
2023/01/25 11:34:27;;;;;;;27.00;17.35;;;;;;;2.18;92.53;102740.91;5097277;28;20192;-79
2023/01/25 11:37:14;;;;;;;32.83;20.00;;;;;;;2.16;92.47;102729.50;5093581;28;20199;-78
2023/01/25 11:39:59;;;;;;;29.60;17.95;;;;;;;2.18;93.07;102727.56;5093042;28;20175;-79
2023/01/25 11:42:42;;;;;;;29.05;17.23;;;;;;;2.11;93.60;102720.06;5095868;28;20188;-79
2023/01/25 11:45:33;;;;;;;36.15;18.00;;;;;;;2.09;93.70;102712.16;5102285;28;20226;-79
2023/01/25 11:48:17;;;;;;;30.60;18.38;;;;;;;2.27;93.20;102706.53;5101818;28;20287;-78
2023/01/25 11:50:58;;;;;;;27.00;16.10;;;;;;;2.12;94.08;102703.09;5088490;28;20227;-78
2023/01/25 11:53:49;;;;;;;30.98;16.90;;;;;;;2.28;93.56;102700.22;5089989;28;20247;-78
2023/01/25 11:56:32;;;;;;;31.08;16.98;;;;;;;2.38;92.47;102685.25;5096197;28;20180;-79
2023/01/25 11:59:33;;;;;;;31.25;18.05;;;;;;;2.11;92.71;102688.88;5095854;28;20195;-78
2023/01/25 12:02:19;;;;;;;29.38;15.57;;;;;;;1.92;93.52;102682.22;5087458;28;20250;-79
2023/01/25 12:05:06;;;;;;;24.27;14.45;;;;;;;1.82;94.36;102679.28;5096991;28;20237;-81
2023/01/25 12:08:00;;;;;;;29.40;15.65;;;;;;;2.04;94.27;102665.34;5089901;28;20219;-77
2023/01/25 12:10:43;;;;;;;29.30;18.20;;;;;;;2.10;94.46;102664.94;5070306;28;20283;-78
2023/01/25 12:13:25;;;;;;;29.30;16.13;;;;;;;2.11;94.44;102648.81;5088802;28;20214;-79
2023/01/25 12:16:20;;;;;;;35.33;19.35;;;;;;;2.14;94.21;102639.72;5104129;28;20195;-78
2023/01/25 12:26:51;;;;;;;29.85;17.40;;;;;;;2.10;94.35;102622.19;5043664;28;20205;-79
2023/01/25 12:34:49;;;;;;;28.58;18.45;;;;;;;1.89;95.73;102605.81;5046559;28;20682;-79
2023/01/25 12:38:32;;;;;;;30.73;17.25;;;;;;;1.62;96.28;102611.22;5072281;28;20195;-81
2023/01/25 12:49:34;;;;;;;33.20;19.15;;;;;;;1.82;97.65;102588.53;5084257;28;20188;-79
2023/01/25 12:56:43;;;;;;;31.75;19.15;;;;;;;1.89;97.11;102587.13;5070655;28;20188;-78
2023/01/25 13:16:42;;;;;;;36.42;19.48;;;;;;;2.00;96.23;102567.72;5021681;28;20213;-79
2023/01/25 13:19:22;;;;;;;39.33;20.30;;;;;;;1.96;96.42;102567.06;5011724;28;20205;-77
2023/01/25 13:21:55;;;;;;;39.60;21.95;;;;;;;2.10;96.04;102568.78;5022859;28;20198;-80
2023/01/25 13:24:33;;;;;;;30.38;18.20;;;;;;;2.00;95.83;102563.22;5025467;28;20241;-79
2023/01/25 13:27:05;;;;;;;37.55;20.45;;;;;;;1.96;96.17;102551.06;5024214;28;20202;-79
2023/01/25 13:30:02;;;;;;;36.00;20.58;;;;;;;1.77;96.89;102539.09;5022444;28;20309;-81
2023/01/25 13:33:09;;;;;;;38.10;19.65;;;;;;;1.60;97.81;102542.88;5031553;28;20202;-79
2023/01/25 13:35:41;;;;;;;35.63;18.50;;;;;;;1.72;97.88;102536.72;5023739;28;20228;-80
2023/01/25 13:38:31;;;;;;;38.08;20.58;;;;;;;1.78;96.93;102530.97;5023702;28;20194;-80
2023/01/25 13:41:18;;;;;;;30.75;17.27;;;;;;;1.78;96.80;102527.44;5015141;28;20193;-80
2023/01/25 13:43:54;;;;;;;32.90;19.38;;;;;;;1.70;96.70;102527.97;5071024;28;20229;-81
2023/01/25 13:46:26;;;;;;;30.85;16.85;;;;;;;1.61;97.41;102517.91;5087902;28;20195;-80
2023/01/25 13:49:07;;;;;;;30.17;17.05;;;;;;;1.54;97.67;102517.50;5105833;28;20187;-79
2023/01/25 13:51:41;;;;;;;31.00;16.17;;;;;;;1.58;98.14;102524.34;5094994;28;20294;-78
2023/01/25 13:54:16;;;;;;;28.38;15.65;;;;;;;1.72;97.76;102513.56;5084916;28;20239;-79
2023/01/25 13:56:46;;;;;;;33.00;16.08;;;;;;;1.73;97.08;102506.41;5085979;28;20750;-78
2023/01/25 13:59:26;;;;;;;31.00;19.08;;;;;;;1.80;96.50;102502.34;5079995;28;20687;-79
2023/01/25 14:01:57;;;;;;;29.20;17.25;;;;;;;1.92;96.22;102495.31;5083810;28;20190;-79
2023/01/25 14:04:29;;;;;;;37.25;17.35;;;;;;;1.71;96.52;102501.19;5085266;28;20227;-79
2023/01/25 14:07:01;;;;;;;29.70;19.50;;;;;;;1.67;96.89;102513.03;5086188;28;20184;-78
2023/01/25 14:09:50;;;;;;;31.52;17.80;;;;;;;1.93;97.04;102491.69;5087477;28;20192;-83
2023/01/25 14:16:04;;;;;;;35.95;16.67;;;;;;;1.82;95.84;102488.91;5079693;28;20195;-82
2023/01/25 14:18:37;;;;;;;38.13;20.25;;;;;;;1.90;96.63;102492.75;5079248;28;20207;-82
2023/01/25 14:21:16;;;;;;;33.72;18.38;;;;;;;1.81;96.19;102493.38;5085195;28;20204;-82
2023/01/25 14:23:50;;;;;;;43.65;18.63;;;;;;;1.76;95.95;102487.50;5093790;28;20240;-85